Terminal Aerodrome Forecast
Issued by NWS

Home | Current Version | Previous Version | Text Only | Print | Product List | Glossary On
Versions: 1 2 3 4 5 6 7 8 9 10 11 12 13 14 15 16
051
FTUS43 KBIS 242049 AAA
TAFDIK
TAF AMD
KDIK 242049Z 2421/2518 29021G30KT P6SM SCT050
     FM250300 31014G21KT P6SM BKN030
     FM250600 30009KT P6SM BKN040
     FM251000 30008KT P6SM SCT060=

USA.gov is the U.S. government's official web portal to all federal, state and local government web resources and services.